Time;durP1;ratioP1;P1;durP2;ratioP2;P2;SDS_P1;SDS_P2;PMS_P1;PMS_P2;Temp;Humidity;BMP_temperature;BMP_pressure;BME280_temperature;BME280_humidity;BME280_pressure;Samples;Min_cycle;Max_cycle;Signal;HPM_P1;HPM_P2
2021/01/22 00:00:41;;;;;;;1.50;1.27;;;9.40;99.90;;;;;;5070923;28;20217;-69
2021/01/22 00:03:07;;;;;;;1.23;1.10;;;9.40;99.90;;;;;;5078809;28;20221;-71
2021/01/22 00:05:33;;;;;;;2.90;1.20;;;9.40;99.90;;;;;;5074994;28;20301;-70
2021/01/22 00:07:59;;;;;;;3.70;1.47;;;9.40;99.90;;;;;;5078586;27;20542;-69
2021/01/22 00:10:25;;;;;;;1.40;1.30;;;9.40;99.90;;;;;;5071990;28;20211;-70
2021/01/22 00:12:50;;;;;;;1.17;1.07;;;9.40;99.90;;;;;;5064445;28;20306;-70
2021/01/22 00:15:16;;;;;;;2.10;1.40;;;9.50;99.90;;;;;;5077774;28;20241;-70
2021/01/22 00:17:42;;;;;;;1.20;1.10;;;9.50;99.90;;;;;;5054496;28;20249;-69
2021/01/22 00:20:10;;;;;;;1.33;1.10;;;9.60;99.90;;;;;;5049562;28;20679;-70
2021/01/22 00:22:35;;;;;;;1.33;1.20;;;9.60;99.90;;;;;;5086750;27;20531;-70
2021/01/22 00:25:02;;;;;;;2.23;1.40;;;9.60;99.90;;;;;;5059335;28;20538;-70
2021/01/22 00:27:28;;;;;;;3.53;1.43;;;9.60;99.90;;;;;;5057101;28;20248;-70
2021/01/22 00:29:54;;;;;;;2.20;1.27;;;9.60;99.90;;;;;;5087362;28;20491;-71
2021/01/22 00:32:19;;;;;;;2.03;1.23;;;9.60;99.90;;;;;;5062607;28;20207;-70
2021/01/22 00:34:46;;;;;;;1.33;1.00;;;9.60;99.90;;;;;;5059174;27;20218;-69
2021/01/22 00:37:12;;;;;;;1.17;1.07;;;9.60;99.90;;;;;;5075259;28;20261;-70
2021/01/22 00:39:38;;;;;;;1.27;0.97;;;9.60;99.90;;;;;;5074843;27;20464;-69
2021/01/22 00:42:04;;;;;;;1.83;1.10;;;9.60;99.90;;;;;;5077666;27;20214;-70
2021/01/22 00:44:30;;;;;;;1.50;1.40;;;9.60;99.90;;;;;;5071413;28;20204;-70
2021/01/22 00:46:57;;;;;;;1.87;0.97;;;9.60;99.90;;;;;;5091748;28;20529;-69
2021/01/22 00:49:23;;;;;;;1.67;1.43;;;9.60;99.90;;;;;;5071339;28;20471;-69
2021/01/22 00:51:49;;;;;;;1.20;1.10;;;9.60;99.90;;;;;;5086761;28;20472;-71
2021/01/22 00:54:15;;;;;;;2.47;1.00;;;9.60;99.90;;;;;;5076587;28;20964;-70
2021/01/22 00:57:13;;;;;;;1.30;0.97;;;9.60;99.90;;;;;;5071111;27;20221;-70
2021/01/22 00:59:39;;;;;;;0.77;0.77;;;9.60;99.90;;;;;;5086533;28;20448;-69
2021/01/22 01:02:05;;;;;;;2.13;1.13;;;9.60;99.90;;;;;;5079754;28;20457;-70
2021/01/22 01:04:31;;;;;;;1.20;1.10;;;9.60;99.90;;;;;;5099990;28;20452;-70
2021/01/22 01:07:06;;;;;;;1.00;1.00;;;9.60;99.90;;;;;;5077239;28;20754;-69
2021/01/22 01:09:32;;;;;;;1.27;1.20;;;9.60;99.90;;;;;;5061741;28;20469;-70
2021/01/22 01:12:21;;;;;;;0.60;0.60;;;9.60;99.90;;;;;;5083969;28;20539;-69
2021/01/22 01:15:05;;;;;;;2.20;1.17;;;9.60;99.90;;;;;;5112628;28;20451;-70
2021/01/22 01:17:37;;;;;;;0.80;0.80;;;9.60;99.90;;;;;;5098928;28;20456;-70
2021/01/22 01:20:04;;;;;;;0.70;0.70;;;9.60;99.90;;;;;;5069916;28;20450;-70
2021/01/22 01:22:30;;;;;;;1.33;1.10;;;9.60;99.90;;;;;;5108281;28;20304;-69
2021/01/22 01:24:55;;;;;;;0.97;0.90;;;9.60;99.90;;;;;;5102871;28;20979;-71
2021/01/22 01:27:21;;;;;;;0.90;0.90;;;9.60;99.90;;;;;;5071462;28;20214;-70
2021/01/22 01:29:47;;;;;;;3.13;1.20;;;9.60;99.90;;;;;;5085978;28;20742;-70
2021/01/22 01:32:12;;;;;;;1.17;1.00;;;9.60;99.90;;;;;;5048044;28;20203;-70
2021/01/22 01:34:38;;;;;;;0.93;0.83;;;9.60;99.90;;;;;;5081593;28;20227;-69
2021/01/22 01:37:04;;;;;;;1.57;1.00;;;9.60;99.90;;;;;;5099261;28;20206;-70
2021/01/22 01:39:29;;;;;;;1.17;1.13;;;9.60;99.90;;;;;;5081571;28;20265;-70
2021/01/22 01:41:55;;;;;;;1.70;1.10;;;9.60;99.90;;;;;;5078314;28;20215;-70
2021/01/22 01:44:21;;;;;;;1.27;0.63;;;9.70;99.90;;;;;;5096478;28;20214;-70
2021/01/22 01:46:47;;;;;;;1.10;0.80;;;9.70;99.90;;;;;;5073077;28;20214;-69
2021/01/22 01:49:12;;;;;;;0.50;0.50;;;9.70;99.90;;;;;;5110501;28;20234;-70
2021/01/22 01:51:38;;;;;;;3.13;1.00;;;9.70;99.90;;;;;;5070785;28;20214;-70
2021/01/22 01:54:04;;;;;;;2.03;0.80;;;9.70;99.90;;;;;;5067756;28;20214;-70
2021/01/22 01:56:30;;;;;;;0.80;0.80;;;9.70;99.90;;;;;;5084585;27;20478;-69
2021/01/22 01:58:57;;;;;;;1.50;0.80;;;9.70;99.90;;;;;;5127672;27;20467;-70
2021/01/22 02:01:25;;;;;;;0.93;0.90;;;9.70;99.90;;;;;;5092228;28;20268;-70
2021/01/22 02:03:51;;;;;;;0.50;0.50;;;9.70;99.90;;;;;;5089646;28;20463;-69
2021/01/22 02:06:16;;;;;;;0.90;0.80;;;9.60;99.90;;;;;;5099162;28;20464;-70
2021/01/22 02:08:42;;;;;;;1.00;0.80;;;9.60;99.90;;;;;;5061404;28;20234;-69
2021/01/22 02:11:12;;;;;;;0.80;0.80;;;9.60;99.90;;;;;;5078514;28;20221;-69
2021/01/22 02:13:39;;;;;;;1.70;0.73;;;9.60;99.90;;;;;;5077906;28;20218;-69
2021/01/22 02:16:05;;;;;;;2.00;0.80;;;9.70;99.90;;;;;;5096927;27;20444;-69
2021/01/22 02:18:32;;;;;;;2.97;0.80;;;9.60;99.90;;;;;;5077364;28;20811;-69
2021/01/22 02:21:08;;;;;;;0.80;0.80;;;9.70;99.90;;;;;;5066770;28;20253;-70
2021/01/22 02:23:37;;;;;;;3.13;0.67;;;9.60;99.90;;;;;;5082184;28;20460;-70
2021/01/22 02:26:27;;;;;;;1.87;1.20;;;9.60;99.90;;;;;;5070249;28;20461;-70
2021/01/22 02:29:05;;;;;;;2.03;0.63;;;9.60;99.90;;;;;;5111749;28;20480;-69
2021/01/22 02:31:35;;;;;;;1.27;1.00;;;9.60;99.90;;;;;;5077646;28;20456;-69
2021/01/22 02:34:05;;;;;;;2.20;0.70;;;9.60;99.90;;;;;;5094746;28;20514;-69
2021/01/22 02:36:35;;;;;;;2.37;0.90;;;9.60;99.90;;;;;;5077244;27;20535;-70
2021/01/22 02:39:07;;;;;;;1.03;0.67;;;9.60;99.90;;;;;;5077868;28;20467;-70
2021/01/22 02:41:35;;;;;;;0.80;0.80;;;9.60;99.90;;;;;;5090776;28;20460;-70
2021/01/22 02:44:04;;;;;;;1.23;1.13;;;9.60;99.90;;;;;;5081164;28;20456;-69
2021/01/22 02:46:31;;;;;;;0.80;0.80;;;9.60;99.90;;;;;;5077549;28;20465;-70
2021/01/22 02:48:58;;;;;;;1.00;0.90;;;9.60;99.90;;;;;;5111690;28;20467;-69
2021/01/22 02:51:24;;;;;;;1.60;0.97;;;9.60;99.90;;;;;;5111128;28;20452;-69
2021/01/22 02:53:50;;;;;;;0.87;0.87;;;9.60;99.90;;;;;;5088347;27;20906;-70
2021/01/22 02:56:37;;;;;;;1.10;0.90;;;9.60;99.90;;;;;;5107792;28;20222;-70
2021/01/22 02:59:09;;;;;;;1.17;1.00;;;9.60;99.90;;;;;;5093834;28;20444;-70
2021/01/22 03:01:49;;;;;;;1.50;0.87;;;9.60;99.90;;;;;;5103613;28;20523;-70
2021/01/22 03:04:16;;;;;;;2.20;1.13;;;9.60;99.90;;;;;;5094559;28;20487;-70
2021/01/22 03:06:45;;;;;;;1.17;1.10;;;9.60;99.90;;;;;;5094173;28;20476;-70
2021/01/22 03:09:17;;;;;;;0.90;0.90;;;9.60;99.90;;;;;;5077571;28;20465;-70
2021/01/22 03:11:47;;;;;;;1.33;0.93;;;9.60;99.90;;;;;;5093790;28;20449;-70
2021/01/22 03:14:13;;;;;;;1.10;0.90;;;9.60;99.90;;;;;;5094216;28;20448;-70
2021/01/22 03:16:39;;;;;;;1.17;1.00;;;9.50;99.90;;;;;;5057423;28;20469;-69
2021/01/22 03:19:05;;;;;;;0.70;0.70;;;9.60;99.90;;;;;;5072945;28;20548;-69
2021/01/22 03:21:31;;;;;;;1.47;0.90;;;9.50;99.90;;;;;;5074628;28;20219;-70
2021/01/22 03:23:58;;;;;;;3.23;1.13;;;9.60;99.90;;;;;;5058642;28;20461;-69
2021/01/22 03:26:24;;;;;;;2.07;1.20;;;9.50;99.90;;;;;;5110514;28;20453;-70
2021/01/22 03:28:50;;;;;;;1.20;1.10;;;9.50;99.90;;;;;;5110895;28;20460;-70
2021/01/22 03:31:16;;;;;;;0.93;0.80;;;9.50;99.90;;;;;;5093997;28;20463;-69
2021/01/22 03:33:44;;;;;;;1.23;0.83;;;9.50;99.90;;;;;;5076419;28;20211;-69
2021/01/22 03:36:09;;;;;;;2.83;1.13;;;9.50;99.90;;;;;;5076477;28;20462;-70
2021/01/22 03:38:35;;;;;;;7.73;1.47;;;9.50;99.90;;;;;;5068424;27;20972;-70
2021/01/22 03:41:01;;;;;;;1.40;1.00;;;9.50;99.90;;;;;;5097164;27;20737;-70
2021/01/22 03:43:27;;;;;;;3.23;1.07;;;9.50;99.90;;;;;;5096640;27;20823;-70
2021/01/22 03:45:53;;;;;;;1.40;0.80;;;9.50;99.90;;;;;;5097112;27;20308;-70
2021/01/22 03:48:19;;;;;;;0.70;0.70;;;9.50;99.90;;;;;;5112646;27;20316;-70
2021/01/22 03:50:44;;;;;;;0.80;0.67;;;9.50;99.90;;;;;;5067576;28;20650;-70
2021/01/22 03:53:10;;;;;;;4.70;0.97;;;9.50;99.90;;;;;;5110527;28;20214;-70
2021/01/22 03:55:36;;;;;;;1.20;1.10;;;9.50;99.90;;;;;;5092444;28;20216;-70
2021/01/22 03:58:03;;;;;;;1.47;0.77;;;9.50;99.90;;;;;;5121463;27;20518;-69
2021/01/22 04:00:30;;;;;;;1.33;0.97;;;9.50;99.90;;;;;;5056188;28;20476;-70
2021/01/22 04:02:56;;;;;;;2.43;1.13;;;9.50;99.90;;;;;;5073039;28;20453;-70
2021/01/22 04:05:22;;;;;;;1.67;0.90;;;9.50;99.90;;;;;;5076669;28;20472;-70
2021/01/22 04:07:48;;;;;;;0.70;0.70;;;9.50;99.90;;;;;;5084235;28;20456;-72
2021/01/22 04:10:13;;;;;;;2.80;0.70;;;9.50;99.90;;;;;;5064298;28;20228;-71
2021/01/22 04:12:39;;;;;;;0.77;0.77;;;9.50;99.90;;;;;;5066411;28;20222;-71
2021/01/22 04:15:06;;;;;;;0.93;0.90;;;9.50;99.90;;;;;;5098622;28;20619;-70
2021/01/22 04:17:32;;;;;;;4.53;0.70;;;9.50;99.90;;;;;;5089766;28;20243;-71
2021/01/22 04:19:58;;;;;;;0.90;0.90;;;9.50;99.90;;;;;;5078983;28;20483;-71
2021/01/22 04:22:23;;;;;;;1.40;1.10;;;9.50;99.90;;;;;;5074052;28;20460;-71
2021/01/22 04:24:49;;;;;;;1.30;0.93;;;9.50;99.90;;;;;;5102970;27;20451;-70
2021/01/22 04:27:15;;;;;;;2.73;0.93;;;9.50;99.90;;;;;;5125922;27;20253;-70
2021/01/22 04:29:41;;;;;;;1.00;0.70;;;9.50;99.90;;;;;;5081315;28;20254;-70
2021/01/22 04:32:07;;;;;;;0.80;0.80;;;9.50;99.90;;;;;;5080511;28;20284;-72
2021/01/22 04:34:33;;;;;;;1.20;0.70;;;9.50;99.90;;;;;;5081354;28;20639;-71
2021/01/22 04:36:59;;;;;;;1.00;0.70;;;9.50;99.90;;;;;;5081297;28;20480;-71
2021/01/22 04:39:24;;;;;;;1.63;0.93;;;9.50;99.90;;;;;;5097396;28;20457;-72
2021/01/22 04:41:51;;;;;;;0.70;0.60;;;9.50;99.90;;;;;;5069608;28;20221;-71
2021/01/22 04:44:17;;;;;;;1.13;0.87;;;9.50;99.90;;;;;;5088356;28;20223;-71
2021/01/22 04:46:44;;;;;;;1.23;0.97;;;9.50;99.90;;;;;;5074551;28;20460;-70
2021/01/22 04:49:10;;;;;;;1.93;1.10;;;9.50;99.90;;;;;;5079719;28;20226;-70
2021/01/22 04:51:36;;;;;;;2.83;1.00;;;9.50;99.90;;;;;;5103937;28;20453;-70
2021/01/22 04:54:09;;;;;;;3.23;0.80;;;9.50;99.90;;;;;;5104699;28;20452;-71
2021/01/22 04:56:43;;;;;;;0.77;0.57;;;9.50;99.90;;;;;;5095452;28;20487;-70
2021/01/22 04:59:39;;;;;;;1.00;0.70;;;9.50;99.90;;;;;;5081346;28;20467;-72
2021/01/22 05:02:05;;;;;;;0.63;0.63;;;9.50;99.90;;;;;;5102275;28;20511;-71
2021/01/22 05:04:31;;;;;;;1.13;1.00;;;9.50;99.90;;;;;;5077243;28;20457;-71
2021/01/22 05:06:57;;;;;;;2.87;1.00;;;9.50;99.90;;;;;;5084069;28;20452;-71
2021/01/22 05:09:24;;;;;;;7.03;0.80;;;9.50;99.90;;;;;;5082678;28;20578;-71
2021/01/22 05:11:54;;;;;;;0.67;0.60;;;9.50;99.90;;;;;;5075874;28;20876;-70
2021/01/22 05:14:20;;;;;;;1.37;0.93;;;9.50;99.90;;;;;;5090586;28;20456;-71
2021/01/22 05:17:02;;;;;;;0.93;0.70;;;9.50;99.90;;;;;;5079014;28;20856;-70
2021/01/22 05:19:28;;;;;;;0.70;0.70;;;9.50;99.90;;;;;;5077613;28;20483;-71
2021/01/22 05:21:53;;;;;;;3.33;1.20;;;9.50;99.90;;;;;;5077966;28;20464;-71
2021/01/22 05:24:24;;;;;;;0.57;0.57;;;9.50;99.90;;;;;;5088286;28;20227;-70
2021/01/22 05:26:59;;;;;;;1.03;0.93;;;9.50;99.90;;;;;;5079994;28;20245;-71
2021/01/22 05:29:25;;;;;;;3.73;1.53;;;9.50;99.90;;;;;;5093254;28;20494;-72
2021/01/22 05:31:51;;;;;;;1.40;0.97;;;9.50;99.90;;;;;;5092840;28;20463;-70
2021/01/22 05:34:17;;;;;;;1.27;0.97;;;9.50;99.90;;;;;;5098719;28;20467;-71
2021/01/22 05:36:42;;;;;;;6.70;1.93;;;9.50;99.90;;;;;;5065607;28;20227;-71
2021/01/22 05:39:21;;;;;;;4.30;1.00;;;9.50;99.90;;;;;;5065856;28;20253;-71
2021/01/22 05:41:54;;;;;;;2.30;1.20;;;9.50;99.90;;;;;;5098791;28;20268;-68
2021/01/22 05:44:24;;;;;;;2.83;1.00;;;9.50;99.90;;;;;;5111820;28;20486;-68
2021/01/22 05:47:19;;;;;;;1.20;1.00;;;9.50;99.90;;;;;;5087831;27;20510;-71
2021/01/22 05:49:58;;;;;;;1.00;0.83;;;9.50;99.90;;;;;;5109473;27;20443;-71
2021/01/22 05:52:25;;;;;;;1.80;1.23;;;9.50;99.90;;;;;;5107193;27;20455;-71
2021/01/22 05:54:51;;;;;;;2.73;0.80;;;9.50;99.90;;;;;;5111588;28;20449;-71
2021/01/22 05:57:17;;;;;;;1.10;1.00;;;9.50;99.90;;;;;;5101024;27;20493;-68
2021/01/22 05:59:43;;;;;;;1.10;1.00;;;9.50;99.90;;;;;;5063999;27;20504;-70
2021/01/22 06:02:25;;;;;;;0.80;0.77;;;9.50;99.90;;;;;;5100927;27;20443;-71
2021/01/22 06:05:14;;;;;;;5.07;1.37;;;9.50;99.90;;;;;;5112852;27;20531;-71
2021/01/22 06:07:45;;;;;;;0.80;0.70;;;9.40;99.90;;;;;;5092394;27;20513;-70
2021/01/22 06:10:15;;;;;;;1.43;0.90;;;9.40;99.90;;;;;;5098451;28;20514;-70
2021/01/22 06:12:48;;;;;;;1.53;1.43;;;9.40;99.90;;;;;;5084592;28;20970;-71
2021/01/22 06:15:16;;;;;;;0.70;0.70;;;9.40;99.90;;;;;;5063675;28;20490;-71
2021/01/22 06:17:47;;;;;;;2.23;0.97;;;9.40;99.90;;;;;;5076368;28;20532;-71
2021/01/22 06:20:16;;;;;;;1.90;0.97;;;9.40;99.90;;;;;;5111852;27;20444;-69
2021/01/22 06:22:50;;;;;;;1.23;0.50;;;9.40;99.90;;;;;;5119124;27;20501;-70
2021/01/22 06:25:17;;;;;;;0.50;0.47;;;9.20;99.90;;;;;;5106742;27;20450;-70
2021/01/22 06:27:45;;;;;;;0.40;0.30;;;9.20;99.90;;;;;;5084677;27;20531;-68
2021/01/22 06:30:11;;;;;;;0.63;0.43;;;9.20;99.90;;;;;;5098107;28;20461;-70
2021/01/22 06:32:40;;;;;;;0.57;0.40;;;9.10;99.90;;;;;;5082435;28;20456;-69
2021/01/22 06:35:07;;;;;;;0.40;0.40;;;9.00;99.90;;;;;;5098472;28;20875;-70
2021/01/22 06:37:35;;;;;;;0.40;0.30;;;8.90;99.90;;;;;;5091301;28;20476;-68
2021/01/22 06:40:04;;;;;;;1.07;0.60;;;8.80;99.90;;;;;;5092918;28;20471;-71
2021/01/22 06:42:36;;;;;;;0.83;0.47;;;8.70;99.90;;;;;;5095750;28;20446;-69
2021/01/22 06:45:02;;;;;;;0.40;0.30;;;8.70;99.90;;;;;;5089212;28;20461;-70
2021/01/22 06:47:28;;;;;;;2.83;0.63;;;8.60;99.90;;;;;;5076926;28;20491;-71
2021/01/22 06:49:53;;;;;;;0.30;0.30;;;8.50;99.90;;;;;;5067622;27;20472;-68
2021/01/22 06:52:19;;;;;;;1.37;0.40;;;8.50;99.90;;;;;;5078685;28;20227;-70
2021/01/22 06:55:04;;;;;;;0.53;0.40;;;8.40;99.90;;;;;;5087662;28;20215;-71
2021/01/22 06:57:30;;;;;;;0.40;0.30;;;8.30;99.90;;;;;;5087290;27;20249;-72
2021/01/22 06:59:57;;;;;;;0.37;0.33;;;8.20;99.90;;;;;;5061101;28;20459;-70
2021/01/22 07:02:32;;;;;;;0.50;0.47;;;8.10;99.90;;;;;;5092266;28;20487;-71
2021/01/22 07:04:58;;;;;;;0.40;0.30;;;8.10;99.90;;;;;;5088793;28;20457;-67
2021/01/22 07:07:44;;;;;;;1.33;0.33;;;8.10;99.90;;;;;;5096993;28;20456;-69
2021/01/22 07:10:09;;;;;;;0.30;0.30;;;8.00;99.90;;;;;;5096480;28;20448;-71
2021/01/22 07:12:35;;;;;;;0.47;0.30;;;7.90;99.90;;;;;;5083368;28;20451;-72
2021/01/22 07:15:01;;;;;;;0.40;0.37;;;7.90;99.90;;;;;;5083429;28;20221;-69
2021/01/22 07:17:30;;;;;;;0.53;0.40;;;7.90;99.90;;;;;;5093462;27;20213;-70
2021/01/22 07:20:04;;;;;;;0.67;0.30;;;7.80;99.90;;;;;;5115028;28;20447;-71
2021/01/22 07:22:33;;;;;;;0.30;0.30;;;7.80;99.90;;;;;;5095666;28;20504;-72
2021/01/22 07:25:00;;;;;;;0.60;0.60;;;7.80;99.90;;;;;;5084023;28;20468;-70
2021/01/22 07:27:46;;;;;;;0.93;0.47;;;7.80;99.90;;;;;;5091651;28;20528;-71
2021/01/22 07:30:16;;;;;;;0.40;0.30;;;7.70;99.90;;;;;;5069643;28;20456;-71
2021/01/22 07:32:43;;;;;;;0.47;0.37;;;7.70;99.90;;;;;;5068678;28;20474;-71
2021/01/22 07:35:25;;;;;;;0.60;0.40;;;7.80;99.90;;;;;;5108981;28;20451;-69
2021/01/22 07:37:51;;;;;;;0.50;0.50;;;7.80;99.90;;;;;;5070127;28;20444;-71
2021/01/22 07:40:18;;;;;;;0.40;0.30;;;7.80;99.90;;;;;;5086135;28;20464;-70
2021/01/22 07:42:45;;;;;;;0.63;0.30;;;7.80;99.90;;;;;;5102990;28;20518;-71
2021/01/22 07:45:15;;;;;;;0.50;0.40;;;7.70;99.90;;;;;;5077607;28;20449;-69
2021/01/22 07:47:44;;;;;;;1.17;0.90;;;7.70;99.90;;;;;;5085137;28;21007;-70
2021/01/22 07:50:15;;;;;;;0.87;0.70;;;7.70;99.90;;;;;;5080518;28;20957;-69
2021/01/22 07:52:43;;;;;;;0.63;0.63;;;7.70;99.90;;;;;;5084072;28;20452;-70
2021/01/22 07:55:14;;;;;;;0.73;0.43;;;7.70;99.90;;;;;;5056716;28;20506;-70
2021/01/22 07:57:39;;;;;;;0.40;0.30;;;7.70;99.90;;;;;;5069246;28;20464;-69
2021/01/22 08:00:07;;;;;;;0.50;0.40;;;7.60;99.90;;;;;;5064563;28;20517;-70
2021/01/22 08:02:38;;;;;;;0.63;0.40;;;7.60;99.90;;;;;;5100394;27;20221;-69
2021/01/22 08:05:09;;;;;;;0.50;0.33;;;7.50;99.90;;;;;;5070191;27;20459;-69
2021/01/22 08:07:39;;;;;;;0.40;0.40;;;7.40;99.90;;;;;;5090580;28;20514;-69
2021/01/22 08:10:10;;;;;;;0.50;0.40;;;7.40;99.90;;;;;;5072823;28;20536;-69
2021/01/22 08:12:37;;;;;;;0.30;0.30;;;7.30;99.90;;;;;;5106859;28;20517;-69
2021/01/22 08:15:23;;;;;;;0.60;0.30;;;7.20;99.90;;;;;;5084967;27;20849;-70
2021/01/22 08:17:50;;;;;;;0.50;0.30;;;7.20;99.90;;;;;;5089718;28;20444;-70
2021/01/22 08:20:17;;;;;;;0.60;0.40;;;7.20;99.90;;;;;;5091131;28;20488;-69
2021/01/22 08:22:49;;;;;;;0.40;0.30;;;7.20;99.90;;;;;;5091351;28;20615;-69
2021/01/22 08:25:15;;;;;;;0.67;0.40;;;7.20;99.90;;;;;;5079257;27;20884;-70
2021/01/22 08:27:41;;;;;;;0.40;0.30;;;7.20;99.90;;;;;;5041231;28;20547;-70
2021/01/22 08:30:07;;;;;;;0.40;0.30;;;7.20;99.90;;;;;;5071672;28;20230;-69
2021/01/22 08:32:33;;;;;;;0.50;0.40;;;7.20;99.90;;;;;;5091163;28;20230;-70
2021/01/22 08:34:59;;;;;;;0.43;0.33;;;7.10;99.90;;;;;;5089992;28;20453;-70
2021/01/22 08:37:25;;;;;;;0.50;0.50;;;7.10;99.90;;;;;;5095696;27;20462;-71
2021/01/22 08:39:52;;;;;;;1.27;0.60;;;7.10;99.90;;;;;;5093763;28;20520;-69
2021/01/22 08:42:18;;;;;;;0.40;0.30;;;7.20;99.90;;;;;;5112565;27;20581;-69
2021/01/22 08:44:51;;;;;;;0.50;0.40;;;7.20;99.90;;;;;;5096819;28;20485;-69
2021/01/22 08:47:16;;;;;;;0.40;0.40;;;7.20;99.90;;;;;;5057593;28;20833;-70
2021/01/22 08:49:52;;;;;;;0.80;0.43;;;7.20;99.90;;;;;;5090964;28;20509;-69
2021/01/22 08:52:18;;;;;;;2.73;0.97;;;7.20;99.90;;;;;;5091747;28;20597;-69
2021/01/22 08:54:43;;;;;;;1.33;0.70;;;7.20;99.90;;;;;;5072863;28;20465;-70
2021/01/22 08:57:09;;;;;;;0.77;0.50;;;7.20;99.90;;;;;;5059203;28;20456;-69
2021/01/22 08:59:52;;;;;;;0.47;0.43;;;7.10;99.90;;;;;;5082377;28;20306;-70
2021/01/22 09:02:38;;;;;;;0.80;0.50;;;7.10;99.90;;;;;;5079840;28;20268;-70
2021/01/22 09:05:17;;;;;;;0.53;0.40;;;7.20;99.90;;;;;;5096183;28;20471;-69
2021/01/22 09:07:44;;;;;;;0.60;0.50;;;7.20;99.90;;;;;;5097980;28;20834;-69
2021/01/22 09:10:21;;;;;;;0.40;0.30;;;7.30;99.90;;;;;;5073340;28;20865;-70
2021/01/22 09:13:11;;;;;;;0.50;0.50;;;7.30;99.90;;;;;;5070213;28;20475;-70
2021/01/22 09:15:36;;;;;;;3.13;0.40;;;7.20;99.90;;;;;;5092611;28;20447;-69
2021/01/22 09:18:13;;;;;;;1.47;1.37;;;7.30;99.90;;;;;;5116995;27;20447;-69
2021/01/22 09:20:38;;;;;;;2.80;2.20;;;7.30;99.90;;;;;;5106992;28;20309;-70
2021/01/22 09:23:05;;;;;;;1.63;1.53;;;7.40;99.90;;;;;;5060483;27;20531;-69
2021/01/22 09:25:31;;;;;;;2.17;1.67;;;7.40;99.90;;;;;;5094445;28;20222;-69
2021/01/22 09:27:56;;;;;;;1.83;1.57;;;7.40;99.90;;;;;;5094064;28;21054;-69
2021/01/22 09:30:25;;;;;;;1.33;1.20;;;7.30;99.90;;;;;;5092084;28;20901;-70
2021/01/22 09:32:59;;;;;;;1.03;0.80;;;7.40;99.90;;;;;;5092678;28;20218;-69
2021/01/22 09:35:28;;;;;;;0.93;0.77;;;7.40;99.90;;;;;;5092740;28;20456;-69
2021/01/22 09:37:55;;;;;;;0.60;0.50;;;7.30;99.90;;;;;;5118721;27;20463;-69
2021/01/22 09:40:21;;;;;;;0.63;0.63;;;7.30;99.90;;;;;;5085288;27;20459;-71
2021/01/22 09:42:47;;;;;;;0.53;0.50;;;7.30;99.90;;;;;;5106438;28;20459;-71
2021/01/22 09:45:14;;;;;;;31.07;16.17;;;7.30;99.90;;;;;;5085788;27;20451;-70
2021/01/22 09:47:40;;;;;;;54.87;31.00;;;7.20;99.90;;;;;;5081896;27;20214;-70
2021/01/22 09:50:07;;;;;;;51.10;29.90;;;7.20;99.90;;;;;;5088571;28;20455;-70
2021/01/22 09:52:36;;;;;;;44.87;28.07;;;7.20;99.90;;;;;;5061053;28;20452;-69
2021/01/22 09:55:03;;;;;;;40.07;22.50;;;7.20;99.90;;;;;;5087397;28;20961;-69
2021/01/22 09:57:28;;;;;;;34.20;20.50;;;7.20;99.90;;;;;;5070594;28;20505;-70
2021/01/22 09:59:55;;;;;;;17.87;14.30;;;7.20;99.90;;;;;;5077721;28;20515;-70
2021/01/22 10:02:21;;;;;;;13.27;10.10;;;7.20;99.90;;;;;;5060636;28;20688;-70
2021/01/22 10:04:47;;;;;;;10.67;7.33;;;7.20;99.90;;;;;;5044716;28;20524;-70
2021/01/22 10:07:13;;;;;;;6.13;5.40;;;7.20;99.90;;;;;;5094806;28;20337;-70
2021/01/22 10:09:38;;;;;;;5.70;4.17;;;7.10;99.90;;;;;;5054578;28;20548;-70
2021/01/22 10:12:06;;;;;;;2.40;2.20;;;7.10;99.90;;;;;;5054803;28;20224;-69
2021/01/22 10:14:32;;;;;;;3.03;2.73;;;7.10;99.90;;;;;;5109528;28;20222;-70
2021/01/22 10:16:58;;;;;;;2.60;2.10;;;7.10;99.90;;;;;;5082523;27;20452;-69
2021/01/22 10:19:24;;;;;;;2.90;2.60;;;7.20;99.90;;;;;;5077697;28;20226;-68
2021/01/22 10:21:50;;;;;;;3.40;3.10;;;7.10;99.90;;;;;;5098659;28;20444;-71
2021/01/22 10:24:16;;;;;;;3.47;3.17;;;7.10;99.90;;;;;;5095521;27;20301;-71
2021/01/22 10:26:45;;;;;;;2.97;2.73;;;7.00;99.90;;;;;;5095168;28;20219;-71
2021/01/22 10:29:11;;;;;;;2.97;2.67;;;7.10;99.90;;;;;;5099111;28;20571;-69
2021/01/22 10:31:37;;;;;;;2.77;1.70;;;7.00;99.90;;;;;;5088869;27;20447;-70
2021/01/22 10:34:03;;;;;;;3.70;2.23;;;7.00;99.90;;;;;;5103777;27;20503;-69
2021/01/22 10:36:28;;;;;;;3.90;2.73;;;7.10;99.90;;;;;;5103781;27;20306;-71
2021/01/22 10:38:55;;;;;;;9.53;6.27;;;7.10;99.90;;;;;;5089184;28;20238;-71
2021/01/22 10:41:21;;;;;;;9.23;6.73;;;7.10;99.90;;;;;;5096027;28;20588;-69
2021/01/22 10:43:47;;;;;;;4.40;4.00;;;7.10;99.90;;;;;;5115475;27;20569;-70
2021/01/22 10:46:12;;;;;;;3.60;3.00;;;7.10;99.90;;;;;;5096421;28;20543;-70
2021/01/22 10:48:38;;;;;;;4.80;3.30;;;7.10;99.90;;;;;;5076462;28;20222;-70
2021/01/22 10:51:05;;;;;;;2.37;2.17;;;7.10;99.90;;;;;;5076254;28;20287;-69
2021/01/22 10:53:33;;;;;;;2.43;2.23;;;7.10;99.90;;;;;;5075739;28;20356;-68
2021/01/22 10:55:59;;;;;;;1.63;1.20;;;7.10;99.90;;;;;;5071481;28;20526;-70
2021/01/22 10:58:25;;;;;;;4.43;1.80;;;7.10;99.90;;;;;;5088564;28;20965;-69
2021/01/22 11:00:54;;;;;;;1.37;1.10;;;7.10;99.90;;;;;;5076612;27;20440;-70
2021/01/22 11:03:20;;;;;;;0.90;0.90;;;7.10;99.90;;;;;;5095886;27;20255;-68
2021/01/22 11:05:46;;;;;;;1.30;0.90;;;7.20;99.90;;;;;;5078911;27;20451;-69
2021/01/22 11:08:11;;;;;;;1.00;0.90;;;7.20;99.90;;;;;;5109406;28;20258;-70
2021/01/22 11:10:37;;;;;;;1.63;1.43;;;7.10;99.90;;;;;;5114318;27;20213;-69
2021/01/22 11:13:04;;;;;;;3.57;1.57;;;7.20;99.90;;;;;;5075814;28;20306;-70
2021/01/22 11:15:31;;;;;;;4.77;2.27;;;7.20;99.90;;;;;;5092795;28;20460;-71
2021/01/22 11:17:57;;;;;;;2.50;1.30;;;7.20;99.90;;;;;;5094821;28;21006;-69
2021/01/22 11:20:22;;;;;;;3.87;1.40;;;7.20;99.90;;;;;;5083767;28;20460;-70
2021/01/22 11:22:48;;;;;;;2.00;1.50;;;7.20;99.90;;;;;;5074817;28;20214;-70
2021/01/22 11:25:15;;;;;;;2.97;1.57;;;7.10;99.90;;;;;;5092776;28;20320;-69
2021/01/22 11:27:42;;;;;;;2.93;1.17;;;7.10;99.90;;;;;;5076203;27;20282;-70
2021/01/22 11:30:09;;;;;;;1.60;1.30;;;7.10;99.90;;;;;;5112720;27;21026;-70
2021/01/22 11:32:35;;;;;;;3.70;1.10;;;7.00;99.90;;;;;;5077904;28;20444;-69
2021/01/22 11:35:01;;;;;;;1.23;1.13;;;7.10;99.90;;;;;;5078925;28;20494;-69
2021/01/22 11:37:26;;;;;;;2.77;2.30;;;7.10;99.90;;;;;;5056048;28;20216;-70
2021/01/22 11:39:52;;;;;;;10.63;5.90;;;7.20;99.90;;;;;;5056440;28;20679;-70
2021/01/22 11:42:18;;;;;;;10.73;6.43;;;7.20;99.90;;;;;;5073217;28;20221;-70
2021/01/22 11:44:44;;;;;;;12.20;7.00;;;7.20;99.90;;;;;;5072173;28;20214;-70
2021/01/22 11:47:10;;;;;;;11.47;5.83;;;7.10;99.90;;;;;;5062547;27;20260;-69
2021/01/22 11:49:36;;;;;;;10.93;5.77;;;7.20;99.90;;;;;;5126662;27;20494;-70
2021/01/22 11:52:01;;;;;;;17.40;8.90;;;7.10;99.90;;;;;;5093623;27;20967;-69
2021/01/22 11:54:27;;;;;;;21.67;10.50;;;7.20;99.90;;;;;;5110349;27;20706;-69
2021/01/22 11:56:53;;;;;;;21.73;11.07;;;7.20;99.90;;;;;;5094157;27;20230;-70
2021/01/22 11:59:19;;;;;;;28.57;13.23;;;7.10;99.90;;;;;;5057717;28;20226;-68
2021/01/22 12:01:46;;;;;;;23.33;10.60;;;7.10;99.90;;;;;;5096217;27;21361;-70
2021/01/22 12:04:12;;;;;;;12.20;5.60;;;7.10;99.90;;;;;;5095568;28;20452;-69
2021/01/22 12:06:38;;;;;;;4.87;3.17;;;7.20;99.90;;;;;;5092931;28;20471;-70
2021/01/22 12:09:05;;;;;;;5.77;3.40;;;7.20;99.90;;;;;;5088658;28;20301;-69
2021/01/22 12:11:31;;;;;;;5.50;2.90;;;7.20;99.90;;;;;;5062730;28;20815;-69
2021/01/22 12:13:57;;;;;;;4.30;2.73;;;7.20;99.90;;;;;;5086803;28;20541;-70
2021/01/22 12:16:24;;;;;;;1.03;0.93;;;7.30;99.90;;;;;;5035447;28;20467;-69
2021/01/22 12:18:49;;;;;;;1.03;1.00;;;7.30;99.90;;;;;;5073124;28;20498;-68
2021/01/22 12:21:15;;;;;;;0.73;0.60;;;7.30;99.90;;;;;;5072515;28;20453;-71
2021/01/22 12:23:42;;;;;;;1.50;0.87;;;7.30;99.90;;;;;;5071928;28;20226;-69
2021/01/22 12:26:09;;;;;;;1.00;0.80;;;7.30;99.90;;;;;;5074389;28;20242;-69
2021/01/22 12:28:35;;;;;;;1.17;1.03;;;7.30;99.90;;;;;;5070184;28;20469;-70
2021/01/22 12:31:02;;;;;;;1.33;1.10;;;7.30;99.90;;;;;;5038320;28;20485;-69
2021/01/22 12:33:28;;;;;;;0.97;0.73;;;7.30;99.90;;;;;;5091833;28;20472;-68
2021/01/22 12:35:53;;;;;;;0.77;0.77;;;7.30;99.90;;;;;;5074347;28;20855;-68
2021/01/22 12:38:20;;;;;;;0.73;0.50;;;7.30;99.90;;;;;;5074704;28;20675;-68
2021/01/22 12:40:45;;;;;;;0.77;0.50;;;7.30;99.90;;;;;;5108911;27;20474;-68
2021/01/22 12:43:11;;;;;;;0.50;0.50;;;7.30;99.90;;;;;;5100688;28;20234;-69
2021/01/22 12:45:37;;;;;;;1.33;0.80;;;7.30;99.90;;;;;;5079813;28;20243;-69
2021/01/22 12:48:06;;;;;;;0.70;0.63;;;7.30;99.90;;;;;;5078629;28;20223;-70
2021/01/22 12:50:32;;;;;;;0.70;0.70;;;7.30;99.90;;;;;;5107879;28;20450;-68
2021/01/22 12:52:58;;;;;;;0.80;0.80;;;7.30;99.90;;;;;;5070381;28;20450;-69
2021/01/22 12:55:24;;;;;;;1.20;0.90;;;7.30;99.90;;;;;;5066412;28;20456;-68
2021/01/22 12:57:50;;;;;;;0.90;0.70;;;7.30;99.90;;;;;;5077548;28;20870;-68
2021/01/22 13:00:17;;;;;;;0.83;0.80;;;7.30;99.90;;;;;;5092447;28;20242;-69